Pelagia — PGRQ — position and weather

sailwx.info

Track history (hours):
 
Tides and Currents Weather Stations Pressure Air Temp Water Temp Dewpoint Dewpoint Depression Visibility Wind Speed Wind Dir Waves Ship Positions

Oceanographic research ship Pelagia (Netherlands)

Detailed information on ship capabilities available from University of Delaware's Ocean Information Center and ARCUS's ALIAS (Arctic Logistics Information and Support) project.

Last reported at 2015-Aug-03 07:34 UTC. Time now 2015-Aug-04 03:25 UTC.
Position N 57°17' W 000°52'.

Length 66 m; beam 13 m.

Type: Other ship. MMSI: 244925000.

Date/timePositionNaut miles runAvg speedWind from/ knotsBaromVisibWave heightAir tempDewpointWater temp
2015-Aug-03 07:34N 57°17' W 000°52'7 6.6
2015-Aug-03 06:33N 57°23' W 000°60'1 2.5
2015-Aug-03 06:00N 57°24' W 001°00'614.1 140 / 261008.0 2.2 1.013.0
2015-Aug-03 05:32N 57°28' W 001°09'8 8.0
2015-Aug-03 04:33N 57°34' W 001°18'9 9.3
2015-Aug-03 03:33N 57°41' W 001°29'6210.3
2015-Aug-02 21:33N 58°29' W 002°42'1111.5
2015-Aug-02 20:33N 58°38' W 002°57'1313.2
2015-Aug-02 19:33N 58°44' W 003°20'8 8.4
2015-Aug-02 18:33N 58°46' W 003°35'4 6.9
2015-Aug-02 18:00N 58°48' W 003°42'4 8.7 100 / 241013.210.8 1.013.0
2015-Aug-02 17:33N 58°49' W 003°49'7 7.5
2015-Aug-02 16:33N 58°52' W 004°02'8 7.6
2015-Aug-02 15:33N 58°55' W 004°16'8 7.7
2015-Aug-02 14:33N 58°58' W 004°29'8 7.8
2015-Aug-02 13:33N 59°01' W 004°44'312 9.9
2015-Aug-01 06:00N 60°54' W 014°24'107 8.9 270 / 21002.510.8 10.0
2015-Jul-31 18:00N 61°48' W 017°36'86 7.2 050 / 341005.0 2.2 1.5 7.0
2015-Jul-31 06:00N 62°42' W 020°00'81 6.7 050 / 421008.0 2.2 1.0 6.0
2015-Jul-30 18:00N 63°30' W 022°24'40 8.3 090 / 181010.9 5.4 0.510.0
2015-Jul-30 13:12N 64°07' W 022°55'6 8.7
2015-Jul-30 12:33N 64°10' W 022°43'9 9.5
2015-Jul-30 11:33N 64°10' W 022°21'10 9.8
2015-Jul-30 10:33N 64°11' W 021°59'2 2.3
2015-Jul-30 09:32N 64°09' W 021°57'0 0.0
2015-Jul-30 08:32N 64°09' W 021°57'0 0.0
2015-Jul-30 07:32N 64°09' W 021°57'0 0.0
2015-Jul-30 06:32N 64°09' W 021°57'0 0.0
2015-Jul-30 05:32N 64°09' W 021°57'0 0.0
2015-Jul-30 04:32N 64°09' W 021°57'0 0.0
2015-Jul-30 03:32N 64°09' W 021°57'0 0.0
2015-Jul-30 02:32N 64°09' W 021°57'0 0.0
2015-Jul-30 01:32N 64°09' W 021°57'0 0.0
2015-Jul-30 00:32N 64°09' W 021°57'0 0.0
2015-Jul-29 23:32N 64°09' W 021°57'0 0.0
2015-Jul-29 22:32N 64°09' W 021°57'0 0.0
2015-Jul-29 21:32N 64°09' W 021°57'0 0.0
2015-Jul-29 20:32N 64°09' W 021°57'0 0.0
2015-Jul-29 19:32N 64°09' W 021°57'0 0.0
2015-Jul-29 18:32N 64°09' W 021°57'0 0.0
2015-Jul-29 17:32N 64°09' W 021°57'0 0.0
2015-Jul-29 16:32N 64°09' W 021°57'0 0.0
2015-Jul-29 15:32N 64°09' W 021°57'0 0.0
2015-Jul-29 14:32N 64°09' W 021°57'0 0.0
2015-Jul-29 13:32N 64°09' W 021°57'0 0.0
2015-Jul-29 12:32N 64°09' W 021°57'0 0.0
2015-Jul-29 11:29N 64°09' W 021°57'0 0.0
2015-Jul-29 10:32N 64°09' W 021°57'0 0.0
2015-Jul-29 09:29N 64°09' W 021°57'0 0.0
2015-Jul-29 08:32N 64°09' W 021°57'0 0.0
2015-Jul-29 07:32N 64°09' W 021°57'0 0.0
2015-Jul-29 06:32N 64°09' W 021°57'0 0.0
2015-Jul-29 05:32N 64°09' W 021°57'0 0.0
2015-Jul-29 04:32N 64°09' W 021°57'0 0.0
2015-Jul-29 03:32N 64°09' W 021°57'0 0.0
2015-Jul-29 02:32N 64°09' W 021°57'0 0.0
2015-Jul-29 01:32N 64°09' W 021°57'0 0.0
2015-Jul-29 00:32N 64°09' W 021°57'0 0.0
2015-Jul-28 23:32N 64°09' W 021°57'0 0.0
2015-Jul-28 22:32N 64°09' W 021°57'0 0.0
2015-Jul-28 21:32N 64°09' W 021°57'0 0.0
2015-Jul-28 20:31N 64°09' W 021°57'0 0.0
2015-Jul-28 19:31N 64°09' W 021°57'0 0.0
2015-Jul-28 18:31N 64°09' W 021°57'0 0.0
2015-Jul-28 17:31N 64°09' W 021°57'1 0.6
2015-Jul-28 16:33N 64°09' W 021°55'84 7.9
2015-Jul-28 06:00N 64°00' W 025°06'108 9.0 350 / 101015.7 5.4 0.5 8.4 10.7
2015-Jul-27 18:00N 63°54' W 029°12'109 9.0 050 / 41017.8 7.6 10.0
2015-Jul-27 06:00N 63°48' W 033°18'44 3.7 010 / 51016.9 5.4 7.8 9.8
2015-Jul-26 18:00N 64°12' W 034°42'12 1.0 070 / 91016.427.0 8.2 9.2
2015-Jul-26 06:00N 64°18' W 035°06'110 9.2 020 / 121015.4 5.4 0.5 7.1 11.4
2015-Jul-25 18:00N 62°42' W 037°06'114 9.5 340 / 31015.310.8 8.1 9.9
2015-Jul-25 06:00N 61°06' W 039°18'94 7.9 350 / 111015.8 5.4 0.5 7.4 9.3
2015-Jul-24 18:00N 59°48' W 041°06'   020 / 121016.4 2.2 6.1 8.6
Track history (hours):
 
Tides and Currents Weather Stations Pressure Air Temp Water Temp Dewpoint Dewpoint Depression Visibility Wind Speed Wind Dir Waves Ship Positions

Oceanographic research ship Pelagia (Netherlands)

Detailed information on ship capabilities available from University of Delaware's Ocean Information Center and ARCUS's ALIAS (Arctic Logistics Information and Support) project.

Last reported at 2015-Aug-03 07:34 UTC. Time now 2015-Aug-04 03:25 UTC.
Position N 57°17' W 000°52'.

Length 66 m; beam 13 m.

Type: Other ship. MMSI: 244925000.

Date/timePositionNaut miles runAvg speedWind from/ knotsBaromVisibWave heightAir tempDewpointWater temp
2015-Aug-03 07:34N 57°17' W 000°52'7 6.6
2015-Aug-03 06:33N 57°23' W 000°60'1 2.5
2015-Aug-03 06:00N 57°24' W 001°00'614.1 140 / 261008.0 2.2 1.013.0
2015-Aug-03 05:32N 57°28' W 001°09'8 8.0
2015-Aug-03 04:33N 57°34' W 001°18'9 9.3
2015-Aug-03 03:33N 57°41' W 001°29'6210.3
2015-Aug-02 21:33N 58°29' W 002°42'1111.5
2015-Aug-02 20:33N 58°38' W 002°57'1313.2
2015-Aug-02 19:33N 58°44' W 003°20'8 8.4
2015-Aug-02 18:33N 58°46' W 003°35'4 6.9
2015-Aug-02 18:00N 58°48' W 003°42'4 8.7 100 / 241013.210.8 1.013.0
2015-Aug-02 17:33N 58°49' W 003°49'7 7.5
2015-Aug-02 16:33N 58°52' W 004°02'8 7.6
2015-Aug-02 15:33N 58°55' W 004°16'8 7.7
2015-Aug-02 14:33N 58°58' W 004°29'8 7.8
2015-Aug-02 13:33N 59°01' W 004°44'312 9.9
2015-Aug-01 06:00N 60°54' W 014°24'107 8.9 270 / 21002.510.8 10.0
2015-Jul-31 18:00N 61°48' W 017°36'86 7.2 050 / 341005.0 2.2 1.5 7.0
2015-Jul-31 06:00N 62°42' W 020°00'81 6.7 050 / 421008.0 2.2 1.0 6.0
2015-Jul-30 18:00N 63°30' W 022°24'40 8.3 090 / 181010.9 5.4 0.510.0
2015-Jul-30 13:12N 64°07' W 022°55'6 8.7
2015-Jul-30 12:33N 64°10' W 022°43'9 9.5
2015-Jul-30 11:33N 64°10' W 022°21'10 9.8
2015-Jul-30 10:33N 64°11' W 021°59'2 2.3
2015-Jul-30 09:32N 64°09' W 021°57'0 0.0
2015-Jul-30 08:32N 64°09' W 021°57'0 0.0
2015-Jul-30 07:32N 64°09' W 021°57'0 0.0
2015-Jul-30 06:32N 64°09' W 021°57'0 0.0
2015-Jul-30 05:32N 64°09' W 021°57'0 0.0
2015-Jul-30 04:32N 64°09' W 021°57'0 0.0
2015-Jul-30 03:32N 64°09' W 021°57'0 0.0
2015-Jul-30 02:32N 64°09' W 021°57'0 0.0
2015-Jul-30 01:32N 64°09' W 021°57'0 0.0
2015-Jul-30 00:32N 64°09' W 021°57'0 0.0
2015-Jul-29 23:32N 64°09' W 021°57'0 0.0
2015-Jul-29 22:32N 64°09' W 021°57'0 0.0
2015-Jul-29 21:32N 64°09' W 021°57'0 0.0
2015-Jul-29 20:32N 64°09' W 021°57'0 0.0
2015-Jul-29 19:32N 64°09' W 021°57'0 0.0
2015-Jul-29 18:32N 64°09' W 021°57'0 0.0
2015-Jul-29 17:32N 64°09' W 021°57'0 0.0
2015-Jul-29 16:32N 64°09' W 021°57'0 0.0
2015-Jul-29 15:32N 64°09' W 021°57'0 0.0
2015-Jul-29 14:32N 64°09' W 021°57'0 0.0
2015-Jul-29 13:32N 64°09' W 021°57'0 0.0
2015-Jul-29 12:32N 64°09' W 021°57'0 0.0
2015-Jul-29 11:29N 64°09' W 021°57'0 0.0
2015-Jul-29 10:32N 64°09' W 021°57'0 0.0
2015-Jul-29 09:29N 64°09' W 021°57'0 0.0
2015-Jul-29 08:32N 64°09' W 021°57'0 0.0
2015-Jul-29 07:32N 64°09' W 021°57'0 0.0
2015-Jul-29 06:32N 64°09' W 021°57'0 0.0
2015-Jul-29 05:32N 64°09' W 021°57'0 0.0
2015-Jul-29 04:32N 64°09' W 021°57'0 0.0
2015-Jul-29 03:32N 64°09' W 021°57'0 0.0
2015-Jul-29 02:32N 64°09' W 021°57'0 0.0
2015-Jul-29 01:32N 64°09' W 021°57'0 0.0
2015-Jul-29 00:32N 64°09' W 021°57'0 0.0
2015-Jul-28 23:32N 64°09' W 021°57'0 0.0
2015-Jul-28 22:32N 64°09' W 021°57'0 0.0
2015-Jul-28 21:32N 64°09' W 021°57'0 0.0
2015-Jul-28 20:31N 64°09' W 021°57'0 0.0
2015-Jul-28 19:31N 64°09' W 021°57'0 0.0
2015-Jul-28 18:31N 64°09' W 021°57'0 0.0
2015-Jul-28 17:31N 64°09' W 021°57'1 0.6
2015-Jul-28 16:33N 64°09' W 021°55'84 7.9
2015-Jul-28 06:00N 64°00' W 025°06'108 9.0 350 / 101015.7 5.4 0.5 8.4 10.7
2015-Jul-27 18:00N 63°54' W 029°12'109 9.0 050 / 41017.8 7.6 10.0
2015-Jul-27 06:00N 63°48' W 033°18'44 3.7 010 / 51016.9 5.4 7.8 9.8
2015-Jul-26 18:00N 64°12' W 034°42'12 1.0 070 / 91016.427.0 8.2 9.2
2015-Jul-26 06:00N 64°18' W 035°06'110 9.2 020 / 121015.4 5.4 0.5 7.1 11.4
2015-Jul-25 18:00N 62°42' W 037°06'114 9.5 340 / 31015.310.8 8.1 9.9
2015-Jul-25 06:00N 61°06' W 039°18'94 7.9 350 / 111015.8 5.4 0.5 7.4 9.3
2015-Jul-24 18:00N 59°48' W 041°06'   020 / 121016.4 2.2 6.1 8.6

Dump ship's entire track history